sensor_id;sensor_type;location;lat;lon;timestamp;P1;durP1;ratioP1;P2;durP2;ratioP2
15708;SDS011;7954;51.914;8.420;2022-09-06T00:02:17;2.93;;;2.47;;
15708;SDS011;7954;51.914;8.420;2022-09-06T00:04:45;3.13;;;2.37;;
15708;SDS011;7954;51.914;8.420;2022-09-06T00:07:14;2.80;;;2.50;;
15708;SDS011;7954;51.914;8.420;2022-09-06T00:09:42;2.70;;;2.50;;
15708;SDS011;7954;51.914;8.420;2022-09-06T00:12:11;2.37;;;2.17;;
15708;SDS011;7954;51.914;8.420;2022-09-06T00:14:39;3.13;;;2.67;;
15708;SDS011;7954;51.914;8.420;2022-09-06T00:17:07;2.93;;;2.60;;
15708;SDS011;7954;51.914;8.420;2022-09-06T00:19:35;3.00;;;2.70;;
15708;SDS011;7954;51.914;8.420;2022-09-06T00:22:03;2.40;;;2.20;;
15708;SDS011;7954;51.914;8.420;2022-09-06T00:24:31;2.87;;;2.67;;
15708;SDS011;7954;51.914;8.420;2022-09-06T00:26:59;2.53;;;2.33;;
15708;SDS011;7954;51.914;8.420;2022-09-06T00:29:28;2.63;;;2.33;;
15708;SDS011;7954;51.914;8.420;2022-09-06T00:31:58;3.67;;;2.37;;
15708;SDS011;7954;51.914;8.420;2022-09-06T00:34:25;2.60;;;2.40;;
15708;SDS011;7954;51.914;8.420;2022-09-06T00:36:54;2.50;;;2.20;;
15708;SDS011;7954;51.914;8.420;2022-09-06T00:39:22;2.37;;;2.17;;
15708;SDS011;7954;51.914;8.420;2022-09-06T00:41:50;2.70;;;2.50;;
15708;SDS011;7954;51.914;8.420;2022-09-06T00:44:18;2.67;;;2.47;;
15708;SDS011;7954;51.914;8.420;2022-09-06T00:46:47;2.70;;;2.50;;
15708;SDS011;7954;51.914;8.420;2022-09-06T00:49:20;3.03;;;2.70;;
15708;SDS011;7954;51.914;8.420;2022-09-06T00:51:51;2.90;;;2.60;;
15708;SDS011;7954;51.914;8.420;2022-09-06T00:54:22;2.80;;;2.60;;
15708;SDS011;7954;51.914;8.420;2022-09-06T00:56:51;2.63;;;2.43;;
15708;SDS011;7954;51.914;8.420;2022-09-06T00:59:20;3.97;;;2.87;;
15708;SDS011;7954;51.914;8.420;2022-09-06T01:01:52;2.53;;;2.33;;
15708;SDS011;7954;51.914;8.420;2022-09-06T01:04:20;2.40;;;2.20;;
15708;SDS011;7954;51.914;8.420;2022-09-06T01:06:50;3.03;;;2.73;;
15708;SDS011;7954;51.914;8.420;2022-09-06T01:09:33;2.83;;;2.30;;
15708;SDS011;7954;51.914;8.420;2022-09-06T01:12:16;2.53;;;2.10;;
15708;SDS011;7954;51.914;8.420;2022-09-06T01:14:56;2.57;;;2.33;;
15708;SDS011;7954;51.914;8.420;2022-09-06T01:17:39;2.33;;;2.13;;
15708;SDS011;7954;51.914;8.420;2022-09-06T01:26:23;2.97;;;2.40;;
15708;SDS011;7954;51.914;8.420;2022-09-06T01:29:06;2.77;;;2.57;;
15708;SDS011;7954;51.914;8.420;2022-09-06T01:31:40;2.20;;;2.00;;
15708;SDS011;7954;51.914;8.420;2022-09-06T01:34:16;2.43;;;2.23;;
15708;SDS011;7954;51.914;8.420;2022-09-06T01:36:49;2.20;;;2.00;;
15708;SDS011;7954;51.914;8.420;2022-09-06T01:39:35;2.57;;;2.37;;
15708;SDS011;7954;51.914;8.420;2022-09-06T01:42:06;3.30;;;3.00;;
15708;SDS011;7954;51.914;8.420;2022-09-06T01:44:37;3.83;;;2.00;;
15708;SDS011;7954;51.914;8.420;2022-09-06T01:47:13;2.47;;;2.20;;
15708;SDS011;7954;51.914;8.420;2022-09-06T01:49:53;2.80;;;2.30;;
15708;SDS011;7954;51.914;8.420;2022-09-06T01:52:32;2.40;;;2.20;;
15708;SDS011;7954;51.914;8.420;2022-09-06T01:55:10;2.20;;;2.10;;
15708;SDS011;7954;51.914;8.420;2022-09-06T01:57:51;2.67;;;2.30;;
15708;SDS011;7954;51.914;8.420;2022-09-06T02:00:32;2.23;;;2.13;;
15708;SDS011;7954;51.914;8.420;2022-09-06T02:03:07;4.13;;;2.30;;
15708;SDS011;7954;51.914;8.420;2022-09-06T02:05:43;2.40;;;2.20;;
15708;SDS011;7954;51.914;8.420;2022-09-06T02:08:16;2.40;;;2.20;;
15708;SDS011;7954;51.914;8.420;2022-09-06T02:10:50;2.50;;;2.33;;
15708;SDS011;7954;51.914;8.420;2022-09-06T02:13:23;2.43;;;2.23;;
15708;SDS011;7954;51.914;8.420;2022-09-06T02:15:57;2.47;;;2.27;;
15708;SDS011;7954;51.914;8.420;2022-09-06T02:18:29;2.37;;;2.27;;
15708;SDS011;7954;51.914;8.420;2022-09-06T02:21:01;2.97;;;2.20;;
15708;SDS011;7954;51.914;8.420;2022-09-06T02:23:31;2.20;;;2.00;;
15708;SDS011;7954;51.914;8.420;2022-09-06T02:26:06;2.73;;;2.50;;
15708;SDS011;7954;51.914;8.420;2022-09-06T02:28:37;2.50;;;2.30;;
15708;SDS011;7954;51.914;8.420;2022-09-06T02:31:08;2.30;;;2.07;;
15708;SDS011;7954;51.914;8.420;2022-09-06T02:33:39;2.27;;;2.10;;
15708;SDS011;7954;51.914;8.420;2022-09-06T02:36:11;2.23;;;2.03;;
15708;SDS011;7954;51.914;8.420;2022-09-06T02:38:41;2.77;;;2.27;;
15708;SDS011;7954;51.914;8.420;2022-09-06T02:41:10;2.13;;;1.90;;
15708;SDS011;7954;51.914;8.420;2022-09-06T02:43:41;2.37;;;2.17;;
15708;SDS011;7954;51.914;8.420;2022-09-06T02:46:11;3.67;;;2.20;;
15708;SDS011;7954;51.914;8.420;2022-09-06T02:48:39;2.30;;;2.10;;
15708;SDS011;7954;51.914;8.420;2022-09-06T02:51:08;2.57;;;2.23;;
15708;SDS011;7954;51.914;8.420;2022-09-06T02:53:36;7.13;;;2.60;;
15708;SDS011;7954;51.914;8.420;2022-09-06T02:56:05;2.57;;;2.37;;
15708;SDS011;7954;51.914;8.420;2022-09-06T02:58:33;2.83;;;2.60;;
15708;SDS011;7954;51.914;8.420;2022-09-06T03:01:01;2.80;;;2.60;;
15708;SDS011;7954;51.914;8.420;2022-09-06T03:03:31;2.80;;;2.60;;
15708;SDS011;7954;51.914;8.420;2022-09-06T03:05:59;2.87;;;2.57;;
15708;SDS011;7954;51.914;8.420;2022-09-06T03:08:27;2.70;;;2.50;;
15708;SDS011;7954;51.914;8.420;2022-09-06T03:10:59;2.47;;;2.27;;
15708;SDS011;7954;51.914;8.420;2022-09-06T03:13:27;4.70;;;2.90;;
15708;SDS011;7954;51.914;8.420;2022-09-06T03:15:56;2.67;;;2.47;;
15708;SDS011;7954;51.914;8.420;2022-09-06T03:18:26;3.20;;;2.90;;
15708;SDS011;7954;51.914;8.420;2022-09-06T03:20:57;2.17;;;2.07;;
15708;SDS011;7954;51.914;8.420;2022-09-06T03:23:25;2.43;;;2.23;;
15708;SDS011;7954;51.914;8.420;2022-09-06T03:25:55;2.97;;;2.67;;
15708;SDS011;7954;51.914;8.420;2022-09-06T03:28:23;2.57;;;2.37;;
15708;SDS011;7954;51.914;8.420;2022-09-06T03:30:53;2.53;;;2.33;;
15708;SDS011;7954;51.914;8.420;2022-09-06T03:33:21;2.60;;;2.40;;
15708;SDS011;7954;51.914;8.420;2022-09-06T03:35:51;2.60;;;2.40;;
15708;SDS011;7954;51.914;8.420;2022-09-06T03:38:23;2.73;;;2.50;;
15708;SDS011;7954;51.914;8.420;2022-09-06T03:40:51;3.17;;;2.93;;
15708;SDS011;7954;51.914;8.420;2022-09-06T03:43:20;2.60;;;2.37;;
15708;SDS011;7954;51.914;8.420;2022-09-06T03:45:49;5.57;;;2.57;;
15708;SDS011;7954;51.914;8.420;2022-09-06T03:48:19;2.57;;;2.37;;
15708;SDS011;7954;51.914;8.420;2022-09-06T03:50:49;2.60;;;2.40;;
15708;SDS011;7954;51.914;8.420;2022-09-06T03:53:20;4.47;;;2.97;;
15708;SDS011;7954;51.914;8.420;2022-09-06T03:55:52;3.30;;;2.50;;
15708;SDS011;7954;51.914;8.420;2022-09-06T03:58:23;2.57;;;2.37;;
15708;SDS011;7954;51.914;8.420;2022-09-06T04:01:00;2.93;;;2.50;;
15708;SDS011;7954;51.914;8.420;2022-09-06T04:03:31;2.07;;;1.97;;
15708;SDS011;7954;51.914;8.420;2022-09-06T04:05:59;2.53;;;2.33;;
15708;SDS011;7954;51.914;8.420;2022-09-06T04:08:28;2.53;;;2.33;;
15708;SDS011;7954;51.914;8.420;2022-09-06T04:10:57;2.63;;;2.43;;
15708;SDS011;7954;51.914;8.420;2022-09-06T04:13:26;2.90;;;2.50;;
15708;SDS011;7954;51.914;8.420;2022-09-06T04:15:54;3.03;;;2.73;;
15708;SDS011;7954;51.914;8.420;2022-09-06T04:18:22;2.97;;;2.47;;
15708;SDS011;7954;51.914;8.420;2022-09-06T04:20:51;3.10;;;2.53;;
15708;SDS011;7954;51.914;8.420;2022-09-06T04:23:21;3.00;;;2.80;;
15708;SDS011;7954;51.914;8.420;2022-09-06T04:25:52;3.47;;;2.50;;
15708;SDS011;7954;51.914;8.420;2022-09-06T04:28:21;3.80;;;2.63;;
15708;SDS011;7954;51.914;8.420;2022-09-06T04:30:53;3.67;;;3.37;;
15708;SDS011;7954;51.914;8.420;2022-09-06T04:33:26;2.60;;;2.40;;
15708;SDS011;7954;51.914;8.420;2022-09-06T04:35:55;2.33;;;2.20;;
15708;SDS011;7954;51.914;8.420;2022-09-06T04:38:24;2.90;;;2.40;;
15708;SDS011;7954;51.914;8.420;2022-09-06T04:40:55;3.37;;;2.60;;
15708;SDS011;7954;51.914;8.420;2022-09-06T04:43:23;3.23;;;2.67;;
15708;SDS011;7954;51.914;8.420;2022-09-06T04:45:51;2.83;;;2.57;;
15708;SDS011;7954;51.914;8.420;2022-09-06T04:48:19;3.33;;;3.03;;
15708;SDS011;7954;51.914;8.420;2022-09-06T04:50:47;3.60;;;2.53;;
15708;SDS011;7954;51.914;8.420;2022-09-06T04:53:14;2.77;;;2.40;;
15708;SDS011;7954;51.914;8.420;2022-09-06T04:55:44;2.83;;;2.47;;
15708;SDS011;7954;51.914;8.420;2022-09-06T04:58:13;3.50;;;3.20;;
15708;SDS011;7954;51.914;8.420;2022-09-06T05:00:41;3.37;;;2.63;;
15708;SDS011;7954;51.914;8.420;2022-09-06T05:03:10;2.67;;;2.47;;
15708;SDS011;7954;51.914;8.420;2022-09-06T05:05:39;3.10;;;2.67;;
15708;SDS011;7954;51.914;8.420;2022-09-06T05:08:07;5.57;;;2.97;;
15708;SDS011;7954;51.914;8.420;2022-09-06T05:10:36;3.23;;;3.03;;
15708;SDS011;7954;51.914;8.420;2022-09-06T05:13:03;2.90;;;2.60;;
15708;SDS011;7954;51.914;8.420;2022-09-06T05:15:33;2.83;;;2.63;;
15708;SDS011;7954;51.914;8.420;2022-09-06T05:18:00;3.23;;;2.90;;
15708;SDS011;7954;51.914;8.420;2022-09-06T05:20:30;2.97;;;2.77;;
15708;SDS011;7954;51.914;8.420;2022-09-06T05:22:59;2.40;;;2.30;;
15708;SDS011;7954;51.914;8.420;2022-09-06T05:25:27;4.63;;;2.87;;
15708;SDS011;7954;51.914;8.420;2022-09-06T05:27:55;5.77;;;2.80;;
15708;SDS011;7954;51.914;8.420;2022-09-06T05:30:23;3.50;;;2.63;;
15708;SDS011;7954;51.914;8.420;2022-09-06T05:32:52;5.13;;;2.43;;
15708;SDS011;7954;51.914;8.420;2022-09-06T05:35:20;5.00;;;2.73;;
15708;SDS011;7954;51.914;8.420;2022-09-06T05:37:49;3.00;;;2.70;;
15708;SDS011;7954;51.914;8.420;2022-09-06T05:40:17;5.23;;;2.97;;
15708;SDS011;7954;51.914;8.420;2022-09-06T05:42:44;2.67;;;2.47;;
15708;SDS011;7954;51.914;8.420;2022-09-06T05:45:12;3.30;;;2.63;;
15708;SDS011;7954;51.914;8.420;2022-09-06T05:47:40;2.80;;;2.60;;
15708;SDS011;7954;51.914;8.420;2022-09-06T05:50:09;2.77;;;2.57;;
15708;SDS011;7954;51.914;8.420;2022-09-06T05:52:38;3.00;;;2.70;;
15708;SDS011;7954;51.914;8.420;2022-09-06T05:55:08;3.33;;;2.60;;
15708;SDS011;7954;51.914;8.420;2022-09-06T05:57:36;3.80;;;2.73;;
15708;SDS011;7954;51.914;8.420;2022-09-06T06:00:04;2.97;;;2.67;;
15708;SDS011;7954;51.914;8.420;2022-09-06T06:02:33;2.97;;;2.77;;
15708;SDS011;7954;51.914;8.420;2022-09-06T06:05:01;6.47;;;2.80;;
15708;SDS011;7954;51.914;8.420;2022-09-06T06:07:30;3.47;;;3.00;;
15708;SDS011;7954;51.914;8.420;2022-09-06T06:09:58;3.40;;;3.00;;
15708;SDS011;7954;51.914;8.420;2022-09-06T06:12:25;3.40;;;2.63;;
15708;SDS011;7954;51.914;8.420;2022-09-06T06:14:53;5.50;;;3.20;;
15708;SDS011;7954;51.914;8.420;2022-09-06T06:17:21;5.00;;;2.80;;
15708;SDS011;7954;51.914;8.420;2022-09-06T06:19:50;5.47;;;2.93;;
15708;SDS011;7954;51.914;8.420;2022-09-06T06:22:18;4.47;;;2.63;;
15708;SDS011;7954;51.914;8.420;2022-09-06T06:24:48;3.63;;;3.27;;
15708;SDS011;7954;51.914;8.420;2022-09-06T06:27:16;4.10;;;2.80;;
15708;SDS011;7954;51.914;8.420;2022-09-06T06:29:44;3.63;;;2.53;;
15708;SDS011;7954;51.914;8.420;2022-09-06T06:32:12;6.47;;;2.97;;
15708;SDS011;7954;51.914;8.420;2022-09-06T06:34:39;5.90;;;3.20;;
15708;SDS011;7954;51.914;8.420;2022-09-06T06:37:07;5.77;;;3.20;;
15708;SDS011;7954;51.914;8.420;2022-09-06T06:39:35;7.30;;;3.30;;
15708;SDS011;7954;51.914;8.420;2022-09-06T06:42:05;3.30;;;3.00;;
15708;SDS011;7954;51.914;8.420;2022-09-06T06:44:34;5.77;;;3.00;;
15708;SDS011;7954;51.914;8.420;2022-09-06T06:47:02;3.50;;;2.77;;
15708;SDS011;7954;51.914;8.420;2022-09-06T06:49:31;5.63;;;3.23;;
15708;SDS011;7954;51.914;8.420;2022-09-06T06:51:59;3.57;;;2.77;;
15708;SDS011;7954;51.914;8.420;2022-09-06T06:54:27;3.03;;;2.70;;
15708;SDS011;7954;51.914;8.420;2022-09-06T06:56:56;4.03;;;3.50;;
15708;SDS011;7954;51.914;8.420;2022-09-06T06:59:25;5.63;;;3.17;;
15708;SDS011;7954;51.914;8.420;2022-09-06T07:01:53;4.03;;;3.57;;
15708;SDS011;7954;51.914;8.420;2022-09-06T07:04:21;3.33;;;3.00;;
15708;SDS011;7954;51.914;8.420;2022-09-06T07:06:49;4.20;;;3.20;;
15708;SDS011;7954;51.914;8.420;2022-09-06T07:09:38;5.87;;;2.90;;
15708;SDS011;7954;51.914;8.420;2022-09-06T07:12:26;3.83;;;2.90;;
15708;SDS011;7954;51.914;8.420;2022-09-06T07:14:56;3.23;;;2.93;;
15708;SDS011;7954;51.914;8.420;2022-09-06T07:17:23;4.27;;;2.63;;
15708;SDS011;7954;51.914;8.420;2022-09-06T07:19:51;3.47;;;2.87;;
15708;SDS011;7954;51.914;8.420;2022-09-06T07:22:39;6.17;;;2.97;;
15708;SDS011;7954;51.914;8.420;2022-09-06T07:25:08;5.00;;;3.00;;
15708;SDS011;7954;51.914;8.420;2022-09-06T07:27:38;3.70;;;2.80;;
15708;SDS011;7954;51.914;8.420;2022-09-06T07:30:15;4.73;;;2.90;;
15708;SDS011;7954;51.914;8.420;2022-09-06T07:32:44;4.17;;;3.10;;
15708;SDS011;7954;51.914;8.420;2022-09-06T07:35:13;5.20;;;3.43;;
15708;SDS011;7954;51.914;8.420;2022-09-06T07:37:40;6.97;;;3.30;;
15708;SDS011;7954;51.914;8.420;2022-09-06T07:40:09;5.83;;;3.80;;
15708;SDS011;7954;51.914;8.420;2022-09-06T07:42:37;6.13;;;2.97;;
15708;SDS011;7954;51.914;8.420;2022-09-06T07:45:05;4.50;;;3.23;;
15708;SDS011;7954;51.914;8.420;2022-09-06T07:47:35;5.57;;;3.63;;
15708;SDS011;7954;51.914;8.420;2022-09-06T07:50:23;6.70;;;3.80;;
15708;SDS011;7954;51.914;8.420;2022-09-06T07:53:12;5.20;;;3.40;;
15708;SDS011;7954;51.914;8.420;2022-09-06T07:55:51;4.23;;;3.20;;
15708;SDS011;7954;51.914;8.420;2022-09-06T07:58:19;8.23;;;3.80;;
15708;SDS011;7954;51.914;8.420;2022-09-06T08:00:48;4.90;;;3.30;;
15708;SDS011;7954;51.914;8.420;2022-09-06T08:03:17;4.70;;;2.97;;
15708;SDS011;7954;51.914;8.420;2022-09-06T08:05:47;3.33;;;3.03;;
15708;SDS011;7954;51.914;8.420;2022-09-06T08:08:35;5.77;;;3.07;;
15708;SDS011;7954;51.914;8.420;2022-09-06T08:11:24;4.60;;;3.13;;
15708;SDS011;7954;51.914;8.420;2022-09-06T08:13:53;5.07;;;3.60;;
15708;SDS011;7954;51.914;8.420;2022-09-06T08:16:23;3.73;;;3.43;;
15708;SDS011;7954;51.914;8.420;2022-09-06T08:18:55;4.27;;;3.30;;
15708;SDS011;7954;51.914;8.420;2022-09-06T08:21:25;4.57;;;3.50;;
15708;SDS011;7954;51.914;8.420;2022-09-06T08:23:55;4.80;;;3.77;;
15708;SDS011;7954;51.914;8.420;2022-09-06T08:26:24;4.13;;;3.70;;
15708;SDS011;7954;51.914;8.420;2022-09-06T08:28:53;3.47;;;3.17;;
15708;SDS011;7954;51.914;8.420;2022-09-06T08:31:23;5.27;;;3.50;;
15708;SDS011;7954;51.914;8.420;2022-09-06T08:33:52;3.73;;;3.33;;
15708;SDS011;7954;51.914;8.420;2022-09-06T08:36:22;3.77;;;3.47;;
15708;SDS011;7954;51.914;8.420;2022-09-06T08:38:52;4.60;;;3.20;;
15708;SDS011;7954;51.914;8.420;2022-09-06T08:41:22;4.97;;;2.80;;
15708;SDS011;7954;51.914;8.420;2022-09-06T08:43:53;3.43;;;3.13;;
15708;SDS011;7954;51.914;8.420;2022-09-06T08:46:44;3.57;;;3.23;;
15708;SDS011;7954;51.914;8.420;2022-09-06T08:49:17;3.73;;;3.13;;
15708;SDS011;7954;51.914;8.420;2022-09-06T08:51:49;2.60;;;2.40;;
15708;SDS011;7954;51.914;8.420;2022-09-06T08:54:27;3.97;;;2.60;;
15708;SDS011;7954;51.914;8.420;2022-09-06T08:57:03;3.53;;;3.23;;
15708;SDS011;7954;51.914;8.420;2022-09-06T08:59:37;4.80;;;2.67;;
15708;SDS011;7954;51.914;8.420;2022-09-06T09:02:08;3.17;;;2.90;;
15708;SDS011;7954;51.914;8.420;2022-09-06T09:04:40;3.23;;;2.90;;
15708;SDS011;7954;51.914;8.420;2022-09-06T09:07:23;2.90;;;2.63;;
15708;SDS011;7954;51.914;8.420;2022-09-06T09:10:03;3.03;;;2.40;;
15708;SDS011;7954;51.914;8.420;2022-09-06T09:12:35;4.67;;;2.93;;
15708;SDS011;7954;51.914;8.420;2022-09-06T09:15:09;3.70;;;2.63;;
15708;SDS011;7954;51.914;8.420;2022-09-06T09:17:40;2.70;;;2.50;;
15708;SDS011;7954;51.914;8.420;2022-09-06T09:20:09;3.97;;;2.57;;
15708;SDS011;7954;51.914;8.420;2022-09-06T09:22:38;2.80;;;2.40;;
15708;SDS011;7954;51.914;8.420;2022-09-06T09:25:08;2.63;;;2.20;;
15708;SDS011;7954;51.914;8.420;2022-09-06T09:27:42;2.90;;;2.47;;
15708;SDS011;7954;51.914;8.420;2022-09-06T09:30:11;3.00;;;2.33;;
15708;SDS011;7954;51.914;8.420;2022-09-06T09:32:59;4.13;;;2.17;;
15708;SDS011;7954;51.914;8.420;2022-09-06T09:35:29;2.35;;;2.13;;
15708;SDS011;7954;51.914;8.420;2022-09-06T09:38:05;3.73;;;2.43;;
15708;SDS011;7954;51.914;8.420;2022-09-06T09:40:38;4.97;;;2.75;;
15708;SDS011;7954;51.914;8.420;2022-09-06T09:43:12;2.50;;;2.30;;
15708;SDS011;7954;51.914;8.420;2022-09-06T09:45:43;2.80;;;2.30;;
15708;SDS011;7954;51.914;8.420;2022-09-06T09:48:16;2.30;;;2.10;;
15708;SDS011;7954;51.914;8.420;2022-09-06T09:50:47;4.55;;;2.55;;
15708;SDS011;7954;51.914;8.420;2022-09-06T09:53:18;2.33;;;2.13;;
15708;SDS011;7954;51.914;8.420;2022-09-06T09:55:49;3.85;;;2.65;;
15708;SDS011;7954;51.914;8.420;2022-09-06T10:01:10;2.85;;;1.95;;
15708;SDS011;7954;51.914;8.420;2022-09-06T10:03:44;2.40;;;2.15;;
15708;SDS011;7954;51.914;8.420;2022-09-06T10:06:32;3.72;;;2.60;;
15708;SDS011;7954;51.914;8.420;2022-09-06T10:09:28;2.92;;;2.63;;
15708;SDS011;7954;51.914;8.420;2022-09-06T10:12:01;2.00;;;1.90;;
15708;SDS011;7954;51.914;8.420;2022-09-06T10:14:29;1.92;;;1.70;;
15708;SDS011;7954;51.914;8.420;2022-09-06T10:16:58;1.80;;;1.70;;
15708;SDS011;7954;51.914;8.420;2022-09-06T10:19:36;1.55;;;1.45;;
15708;SDS011;7954;51.914;8.420;2022-09-06T10:22:12;1.90;;;1.80;;
15708;SDS011;7954;51.914;8.420;2022-09-06T10:25:02;1.80;;;1.70;;
15708;SDS011;7954;51.914;8.420;2022-09-06T10:27:52;2.85;;;1.88;;
15708;SDS011;7954;51.914;8.420;2022-09-06T10:30:44;2.47;;;1.83;;
15708;SDS011;7954;51.914;8.420;2022-09-06T10:33:22;2.15;;;1.95;;
15708;SDS011;7954;51.914;8.420;2022-09-06T10:35:55;2.70;;;1.70;;
15708;SDS011;7954;51.914;8.420;2022-09-06T10:38:31;2.25;;;1.65;;
15708;SDS011;7954;51.914;8.420;2022-09-06T10:41:12;1.80;;;1.70;;
15708;SDS011;7954;51.914;8.420;2022-09-06T10:43:53;2.47;;;1.70;;
15708;SDS011;7954;51.914;8.420;2022-09-06T10:46:28;2.47;;;1.90;;
15708;SDS011;7954;51.914;8.420;2022-09-06T10:48:59;3.63;;;1.73;;
15708;SDS011;7954;51.914;8.420;2022-09-06T10:51:30;2.17;;;1.52;;
15708;SDS011;7954;51.914;8.420;2022-09-06T10:54:03;2.38;;;1.65;;
15708;SDS011;7954;51.914;8.420;2022-09-06T10:56:40;2.20;;;1.83;;
15708;SDS011;7954;51.914;8.420;2022-09-06T10:59:11;1.75;;;1.65;;
15708;SDS011;7954;51.914;8.420;2022-09-06T11:02:07;1.35;;;1.25;;
15708;SDS011;7954;51.914;8.420;2022-09-06T11:04:44;1.77;;;1.63;;
15708;SDS011;7954;51.914;8.420;2022-09-06T11:07:35;2.65;;;1.60;;
15708;SDS011;7954;51.914;8.420;2022-09-06T11:10:09;1.58;;;1.48;;
15708;SDS011;7954;51.914;8.420;2022-09-06T11:12:46;2.20;;;1.90;;
15708;SDS011;7954;51.914;8.420;2022-09-06T11:15:19;1.50;;;1.40;;
15708;SDS011;7954;51.914;8.420;2022-09-06T11:17:50;1.90;;;1.38;;
15708;SDS011;7954;51.914;8.420;2022-09-06T11:20:24;1.83;;;1.50;;
15708;SDS011;7954;51.914;8.420;2022-09-06T11:26:03;2.00;;;1.80;;
15708;SDS011;7954;51.914;8.420;2022-09-06T11:28:43;1.60;;;1.50;;
15708;SDS011;7954;51.914;8.420;2022-09-06T11:31:17;1.70;;;1.60;;
15708;SDS011;7954;51.914;8.420;2022-09-06T11:34:10;1.65;;;1.55;;
15708;SDS011;7954;51.914;8.420;2022-09-06T11:36:49;3.08;;;1.50;;
15708;SDS011;7954;51.914;8.420;2022-09-06T11:39:25;3.80;;;1.75;;
15708;SDS011;7954;51.914;8.420;2022-09-06T11:45:16;2.10;;;1.75;;
15708;SDS011;7954;51.914;8.420;2022-09-06T11:47:47;1.75;;;1.50;;
15708;SDS011;7954;51.914;8.420;2022-09-06T11:50:17;2.70;;;1.60;;
15708;SDS011;7954;51.914;8.420;2022-09-06T11:52:55;3.45;;;1.50;;
15708;SDS011;7954;51.914;8.420;2022-09-06T11:55:32;1.50;;;1.40;;
15708;SDS011;7954;51.914;8.420;2022-09-06T11:58:06;4.28;;;1.60;;
15708;SDS011;7954;51.914;8.420;2022-09-06T12:00:39;2.40;;;1.80;;
15708;SDS011;7954;51.914;8.420;2022-09-06T12:03:07;1.42;;;1.33;;
15708;SDS011;7954;51.914;8.420;2022-09-06T12:06:13;2.03;;;1.70;;
15708;SDS011;7954;51.914;8.420;2022-09-06T12:08:44;3.15;;;1.90;;
15708;SDS011;7954;51.914;8.420;2022-09-06T12:11:24;1.90;;;1.33;;
15708;SDS011;7954;51.914;8.420;2022-09-06T12:13:56;3.17;;;1.40;;
15708;SDS011;7954;51.914;8.420;2022-09-06T12:19:57;2.40;;;1.65;;
15708;SDS011;7954;51.914;8.420;2022-09-06T12:22:51;1.50;;;1.40;;
15708;SDS011;7954;51.914;8.420;2022-09-06T12:28:26;2.53;;;1.40;;
15708;SDS011;7954;51.914;8.420;2022-09-06T12:33:53;2.40;;;1.55;;
15708;SDS011;7954;51.914;8.420;2022-09-06T12:36:25;5.05;;;1.80;;
15708;SDS011;7954;51.914;8.420;2022-09-06T12:38:58;1.40;;;1.30;;
15708;SDS011;7954;51.914;8.420;2022-09-06T12:41:28;2.00;;;1.80;;
15708;SDS011;7954;51.914;8.420;2022-09-06T12:43:58;2.47;;;1.60;;
15708;SDS011;7954;51.914;8.420;2022-09-06T12:46:28;1.80;;;1.65;;
15708;SDS011;7954;51.914;8.420;2022-09-06T12:48:59;3.42;;;1.70;;
15708;SDS011;7954;51.914;8.420;2022-09-06T12:51:31;2.50;;;1.45;;
15708;SDS011;7954;51.914;8.420;2022-09-06T12:53:59;2.35;;;1.50;;
15708;SDS011;7954;51.914;8.420;2022-09-06T12:56:30;1.52;;;1.42;;
15708;SDS011;7954;51.914;8.420;2022-09-06T12:59:08;2.30;;;1.55;;
15708;SDS011;7954;51.914;8.420;2022-09-06T13:01:39;4.40;;;2.10;;
15708;SDS011;7954;51.914;8.420;2022-09-06T13:04:12;4.03;;;1.60;;
15708;SDS011;7954;51.914;8.420;2022-09-06T13:06:47;1.50;;;1.40;;
15708;SDS011;7954;51.914;8.420;2022-09-06T13:09:16;1.88;;;1.40;;
15708;SDS011;7954;51.914;8.420;2022-09-06T13:11:47;2.40;;;1.30;;
15708;SDS011;7954;51.914;8.420;2022-09-06T13:14:17;2.38;;;1.50;;
15708;SDS011;7954;51.914;8.420;2022-09-06T13:16:52;2.05;;;1.70;;
15708;SDS011;7954;51.914;8.420;2022-09-06T13:19:29;2.75;;;1.55;;
15708;SDS011;7954;51.914;8.420;2022-09-06T13:22:00;1.63;;;1.30;;
15708;SDS011;7954;51.914;8.420;2022-09-06T13:24:38;1.80;;;1.45;;
15708;SDS011;7954;51.914;8.420;2022-09-06T13:27:22;1.88;;;1.52;;
15708;SDS011;7954;51.914;8.420;2022-09-06T13:29:56;4.97;;;1.50;;
15708;SDS011;7954;51.914;8.420;2022-09-06T13:32:24;1.50;;;1.40;;
15708;SDS011;7954;51.914;8.420;2022-09-06T13:34:53;1.80;;;1.50;;
15708;SDS011;7954;51.914;8.420;2022-09-06T13:37:25;1.55;;;1.45;;
15708;SDS011;7954;51.914;8.420;2022-09-06T13:39:54;2.03;;;1.45;;
15708;SDS011;7954;51.914;8.420;2022-09-06T13:42:25;1.60;;;1.50;;
15708;SDS011;7954;51.914;8.420;2022-09-06T13:44:56;1.50;;;1.40;;
15708;SDS011;7954;51.914;8.420;2022-09-06T13:47:27;2.00;;;1.67;;
15708;SDS011;7954;51.914;8.420;2022-09-06T13:49:56;3.05;;;1.40;;
15708;SDS011;7954;51.914;8.420;2022-09-06T13:52:25;2.47;;;1.60;;
15708;SDS011;7954;51.914;8.420;2022-09-06T13:54:54;2.70;;;1.45;;
15708;SDS011;7954;51.914;8.420;2022-09-06T13:57:22;1.92;;;1.45;;
15708;SDS011;7954;51.914;8.420;2022-09-06T13:59:50;1.70;;;1.60;;
15708;SDS011;7954;51.914;8.420;2022-09-06T14:02:18;1.60;;;1.50;;
15708;SDS011;7954;51.914;8.420;2022-09-06T14:04:46;1.88;;;1.42;;
15708;SDS011;7954;51.914;8.420;2022-09-06T14:07:14;2.60;;;1.50;;
15708;SDS011;7954;51.914;8.420;2022-09-06T14:09:44;2.85;;;1.70;;
15708;SDS011;7954;51.914;8.420;2022-09-06T14:12:13;2.75;;;1.42;;
15708;SDS011;7954;51.914;8.420;2022-09-06T14:14:40;1.83;;;1.40;;
15708;SDS011;7954;51.914;8.420;2022-09-06T14:17:10;2.22;;;1.80;;
15708;SDS011;7954;51.914;8.420;2022-09-06T14:19:37;1.40;;;1.30;;
15708;SDS011;7954;51.914;8.420;2022-09-06T14:22:05;2.35;;;1.55;;
15708;SDS011;7954;51.914;8.420;2022-09-06T14:24:33;1.58;;;1.40;;
15708;SDS011;7954;51.914;8.420;2022-09-06T14:27:03;1.60;;;1.50;;
15708;SDS011;7954;51.914;8.420;2022-09-06T14:29:32;1.83;;;1.50;;
15708;SDS011;7954;51.914;8.420;2022-09-06T14:32:01;12.43;;;2.20;;
15708;SDS011;7954;51.914;8.420;2022-09-06T14:34:29;2.20;;;1.38;;
15708;SDS011;7954;51.914;8.420;2022-09-06T14:36:57;2.75;;;1.40;;
15708;SDS011;7954;51.914;8.420;2022-09-06T14:39:25;1.50;;;1.40;;
15708;SDS011;7954;51.914;8.420;2022-09-06T14:41:53;2.28;;;1.35;;
15708;SDS011;7954;51.914;8.420;2022-09-06T14:44:23;5.38;;;2.05;;
15708;SDS011;7954;51.914;8.420;2022-09-06T14:46:51;2.78;;;1.30;;
15708;SDS011;7954;51.914;8.420;2022-09-06T14:49:19;2.72;;;1.27;;
15708;SDS011;7954;51.914;8.420;2022-09-06T14:51:47;1.20;;;1.10;;
15708;SDS011;7954;51.914;8.420;2022-09-06T14:54:15;1.50;;;1.20;;
15708;SDS011;7954;51.914;8.420;2022-09-06T14:56:45;2.10;;;1.65;;
15708;SDS011;7954;51.914;8.420;2022-09-06T14:59:13;1.83;;;1.35;;
15708;SDS011;7954;51.914;8.420;2022-09-06T15:01:43;1.88;;;1.60;;
15708;SDS011;7954;51.914;8.420;2022-09-06T15:04:11;2.78;;;1.77;;
15708;SDS011;7954;51.914;8.420;2022-09-06T15:06:39;3.33;;;1.70;;
15708;SDS011;7954;51.914;8.420;2022-09-06T15:09:12;1.63;;;1.48;;
15708;SDS011;7954;51.914;8.420;2022-09-06T15:11:41;1.75;;;1.45;;
15708;SDS011;7954;51.914;8.420;2022-09-06T15:14:12;2.78;;;1.33;;
15708;SDS011;7954;51.914;8.420;2022-09-06T15:16:44;2.55;;;1.15;;
15708;SDS011;7954;51.914;8.420;2022-09-06T15:19:17;1.33;;;1.23;;
15708;SDS011;7954;51.914;8.420;2022-09-06T15:21:46;2.58;;;1.67;;
15708;SDS011;7954;51.914;8.420;2022-09-06T15:24:14;2.25;;;1.55;;
15708;SDS011;7954;51.914;8.420;2022-09-06T15:26:42;2.78;;;1.65;;
15708;SDS011;7954;51.914;8.420;2022-09-06T15:29:10;4.65;;;1.70;;
15708;SDS011;7954;51.914;8.420;2022-09-06T15:31:40;3.25;;;1.20;;
15708;SDS011;7954;51.914;8.420;2022-09-06T15:34:10;3.65;;;1.60;;
15708;SDS011;7954;51.914;8.420;2022-09-06T15:36:39;1.50;;;1.40;;
15708;SDS011;7954;51.914;8.420;2022-09-06T15:39:07;1.73;;;1.40;;
15708;SDS011;7954;51.914;8.420;2022-09-06T15:41:36;2.75;;;1.40;;
15708;SDS011;7954;51.914;8.420;2022-09-06T15:44:06;1.38;;;1.27;;
15708;SDS011;7954;51.914;8.420;2022-09-06T15:46:43;1.40;;;1.30;;
15708;SDS011;7954;51.914;8.420;2022-09-06T15:49:17;2.47;;;1.50;;
15708;SDS011;7954;51.914;8.420;2022-09-06T15:51:53;2.55;;;1.40;;
15708;SDS011;7954;51.914;8.420;2022-09-06T15:54:21;4.38;;;1.70;;